Time;durP1;ratioP1;P1;durP2;ratioP2;P2;SDS_P1;SDS_P2;PMS_P1;PMS_P2;Temp;Humidity;BMP_temperature;BMP_pressure;BME280_temperature;BME280_humidity;BME280_pressure;Samples;Min_cycle;Max_cycle;Signal;HPM_P1;HPM_P2
2022/11/13 00:00:41;;;;;;;62.85;20.58;;;;;;;;;;5093962;28;20706;-57
2022/11/13 00:03:06;;;;;;;115.72;23.50;;;;;;;;;;5073906;28;20032;-56
2022/11/13 00:05:31;;;;;;;154.18;21.52;;;;;;;;;;5084009;28;20048;-57
2022/11/13 00:07:57;;;;;;;136.77;23.17;;;;;;;;;;5077664;28;20060;-56
2022/11/13 00:10:22;;;;;;;202.15;27.30;;;;;;;;;;5088464;28;20047;-57
2022/11/13 00:12:47;;;;;;;220.10;33.83;;;;;;;;;;5073978;28;20012;-57
2022/11/13 00:15:12;;;;;;;222.88;38.15;;;;;;;;;;5077677;28;20464;-57
2022/11/13 00:17:38;;;;;;;193.02;40.10;;;;;;;;;;5084684;28;20015;-57
2022/11/13 00:20:03;;;;;;;192.75;33.25;;;;;;;;;;5081525;28;20489;-56
2022/11/13 00:22:28;;;;;;;201.15;21.98;;;;;;;;;;5115886;27;20037;-56
2022/11/13 00:24:54;;;;;;;162.43;22.52;;;;;;;;;;5073740;28;20020;-57
2022/11/13 00:27:19;;;;;;;178.70;31.15;;;;;;;;;;5078813;28;20118;-56
2022/11/13 00:29:44;;;;;;;137.13;31.17;;;;;;;;;;5079302;28;20016;-57
2022/11/13 00:32:09;;;;;;;126.85;26.70;;;;;;;;;;5074284;28;20027;-56
2022/11/13 00:34:34;;;;;;;88.10;25.00;;;;;;;;;;5085268;28;20056;-57
2022/11/13 00:37:00;;;;;;;66.43;19.98;;;;;;;;;;5072833;28;20351;-56
2022/11/13 00:39:25;;;;;;;67.05;19.90;;;;;;;;;;5080682;28;20375;-57
2022/11/13 00:41:50;;;;;;;66.25;17.05;;;;;;;;;;5080670;28;20092;-55
2022/11/13 00:44:15;;;;;;;70.05;14.88;;;;;;;;;;5081379;28;20008;-57
2022/11/13 00:46:41;;;;;;;126.60;15.43;;;;;;;;;;5078207;28;20019;-56
2022/11/13 00:49:06;;;;;;;115.30;15.90;;;;;;;;;;5086699;28;20012;-57
2022/11/13 00:51:31;;;;;;;79.45;14.48;;;;;;;;;;5080521;28;20177;-57
2022/11/13 00:53:56;;;;;;;87.43;17.23;;;;;;;;;;5070288;28;20024;-56
2022/11/13 00:56:21;;;;;;;171.80;16.92;;;;;;;;;;5070401;28;20036;-56
2022/11/13 00:58:47;;;;;;;61.60;15.52;;;;;;;;;;5077116;28;20107;-56
2022/11/13 01:01:13;;;;;;;125.53;17.17;;;;;;;;;;5071032;28;20039;-57
2022/11/13 01:03:38;;;;;;;198.68;18.02;;;;;;;;;;5073582;28;20019;-56
2022/11/13 01:06:14;;;;;;;121.43;19.92;;;;;;;;;;5076916;28;20056;-58
2022/11/13 01:08:39;;;;;;;92.00;19.35;;;;;;;;;;5079155;28;20024;-58
2022/11/13 01:11:08;;;;;;;105.80;18.92;;;;;;;;;;5078350;28;20016;-55
2022/11/13 01:13:34;;;;;;;55.03;17.38;;;;;;;;;;5074590;28;20033;-58
2022/11/13 01:15:59;;;;;;;44.70;17.60;;;;;;;;;;5076142;28;20051;-57
2022/11/13 01:18:24;;;;;;;31.60;18.13;;;;;;;;;;5084011;28;20024;-55
2022/11/13 01:20:49;;;;;;;34.60;19.83;;;;;;;;;;5079060;28;20111;-55
2022/11/13 01:23:15;;;;;;;30.65;17.77;;;;;;;;;;5080011;28;20102;-58
2022/11/13 01:25:40;;;;;;;32.67;17.63;;;;;;;;;;5076859;28;20334;-55
2022/11/13 01:28:05;;;;;;;32.35;18.42;;;;;;;;;;5089783;28;20108;-58
2022/11/13 01:30:30;;;;;;;30.05;17.92;;;;;;;;;;5074680;28;20036;-53
2022/11/13 01:32:55;;;;;;;30.48;16.73;;;;;;;;;;5075387;28;20031;-57
2022/11/13 01:35:21;;;;;;;28.80;17.90;;;;;;;;;;5077300;28;20039;-54
2022/11/13 01:37:46;;;;;;;154.50;20.05;;;;;;;;;;5088601;28;20024;-57
2022/11/13 01:40:11;;;;;;;32.92;16.85;;;;;;;;;;5080897;28;20039;-58
2022/11/13 01:42:36;;;;;;;34.92;17.85;;;;;;;;;;5082681;28;20034;-56
2022/11/13 01:45:02;;;;;;;36.15;18.95;;;;;;;;;;5071903;28;20442;-58
2022/11/13 01:47:27;;;;;;;32.30;17.70;;;;;;;;;;5080795;28;20046;-57
2022/11/13 01:49:54;;;;;;;23.67;13.02;;;;;;;;;;5079136;28;20013;-57
2022/11/13 01:52:24;;;;;;;23.33;13.90;;;;;;;;;;5098941;27;20411;-57
2022/11/13 01:54:50;;;;;;;26.55;13.98;;;;;;;;;;5078403;28;20066;-58
2022/11/13 01:57:15;;;;;;;29.92;15.82;;;;;;;;;;5077442;28;20040;-58
2022/11/13 01:59:41;;;;;;;41.55;18.55;;;;;;;;;;5081643;28;20020;-56
2022/11/13 02:02:06;;;;;;;38.13;17.17;;;;;;;;;;5073742;28;20020;-56
2022/11/13 02:04:31;;;;;;;49.55;18.17;;;;;;;;;;5083717;28;20024;-57
2022/11/13 02:07:00;;;;;;;49.85;20.00;;;;;;;;;;5090266;28;20047;-57
2022/11/13 02:09:26;;;;;;;50.55;15.55;;;;;;;;;;5084121;28;20075;-56
2022/11/13 02:11:52;;;;;;;104.07;18.42;;;;;;;;;;5076295;28;20021;-57
2022/11/13 02:14:17;;;;;;;66.88;17.40;;;;;;;;;;5087480;28;20482;-57
2022/11/13 02:16:42;;;;;;;91.78;17.00;;;;;;;;;;5085545;28;20040;-58
2022/11/13 02:19:12;;;;;;;80.28;17.45;;;;;;;;;;5081989;28;20017;-56
2022/11/13 02:21:40;;;;;;;104.72;17.45;;;;;;;;;;5123990;27;20115;-57
2022/11/13 02:24:18;;;;;;;216.05;19.23;;;;;;;;;;5084916;28;20103;-57
2022/11/13 02:26:43;;;;;;;58.67;16.70;;;;;;;;;;5078314;28;20012;-57
2022/11/13 02:29:08;;;;;;;45.38;17.10;;;;;;;;;;5081139;28;20020;-56
2022/11/13 02:31:34;;;;;;;37.38;17.05;;;;;;;;;;5090311;28;20089;-57
2022/11/13 02:34:00;;;;;;;57.78;17.35;;;;;;;;;;5080909;28;20544;-54
2022/11/13 02:36:26;;;;;;;50.00;17.77;;;;;;;;;;5079414;28;20153;-57
2022/11/13 02:38:51;;;;;;;81.10;17.95;;;;;;;;;;5087809;28;20474;-57
2022/11/13 02:41:16;;;;;;;144.95;21.38;;;;;;;;;;5090521;28;20020;-56
2022/11/13 02:43:41;;;;;;;88.55;17.20;;;;;;;;;;5077962;28;20629;-55
2022/11/13 02:46:07;;;;;;;57.55;16.92;;;;;;;;;;5091354;28;20080;-57
2022/11/13 02:48:32;;;;;;;123.75;14.25;;;;;;;;;;5092229;28;20236;-57
2022/11/13 02:50:57;;;;;;;58.75;14.35;;;;;;;;;;5087809;28;20028;-57
2022/11/13 02:53:22;;;;;;;36.58;14.35;;;;;;;;;;5080132;28;20020;-57
2022/11/13 02:55:48;;;;;;;40.08;14.93;;;;;;;;;;5081810;28;20389;-57
2022/11/13 02:58:13;;;;;;;62.05;14.48;;;;;;;;;;5085172;28;20394;-57
2022/11/13 03:00:38;;;;;;;54.55;14.98;;;;;;;;;;5094851;28;20111;-56
2022/11/13 03:03:03;;;;;;;39.47;14.60;;;;;;;;;;5078222;28;20212;-58
2022/11/13 03:05:29;;;;;;;51.38;16.92;;;;;;;;;;5085964;28;20075;-56
2022/11/13 03:07:54;;;;;;;54.42;15.27;;;;;;;;;;5082852;28;20023;-57
2022/11/13 03:10:19;;;;;;;40.35;15.30;;;;;;;;;;5079883;28;20095;-56
2022/11/13 03:12:45;;;;;;;59.63;15.50;;;;;;;;;;5083602;28;20122;-55
2022/11/13 03:15:10;;;;;;;61.58;16.13;;;;;;;;;;5075101;28;20055;-56
2022/11/13 03:17:35;;;;;;;31.10;14.18;;;;;;;;;;5078644;28;20069;-57
2022/11/13 03:20:00;;;;;;;48.05;15.10;;;;;;;;;;5069772;28;20063;-57
2022/11/13 03:22:26;;;;;;;43.47;14.73;;;;;;;;;;5076948;28;20078;-57
2022/11/13 03:24:51;;;;;;;40.15;15.55;;;;;;;;;;5074067;28;20170;-58
2022/11/13 03:27:16;;;;;;;42.65;15.18;;;;;;;;;;5076715;28;20039;-57
2022/11/13 03:29:41;;;;;;;39.88;13.60;;;;;;;;;;5088267;28;20231;-56
2022/11/13 03:32:07;;;;;;;39.92;14.30;;;;;;;;;;5087972;28;20030;-56
2022/11/13 03:34:32;;;;;;;37.35;14.27;;;;;;;;;;5079550;28;20100;-55
2022/11/13 03:36:57;;;;;;;38.33;14.25;;;;;;;;;;5078484;28;20119;-56
2022/11/13 03:39:22;;;;;;;46.00;14.23;;;;;;;;;;5083286;28;20441;-56
2022/11/13 03:41:48;;;;;;;32.35;13.23;;;;;;;;;;5076508;28;20032;-56
2022/11/13 03:44:13;;;;;;;32.42;12.32;;;;;;;;;;5069286;28;20793;-55
2022/11/13 03:46:38;;;;;;;29.40;12.70;;;;;;;;;;5084738;28;20081;-55
2022/11/13 03:49:03;;;;;;;21.08;11.43;;;;;;;;;;5081142;28;20028;-54
2022/11/13 03:51:28;;;;;;;32.28;10.98;;;;;;;;;;5078826;28;20017;-56
2022/11/13 03:53:54;;;;;;;47.70;11.57;;;;;;;;;;5082995;28;20028;-57
2022/11/13 03:56:19;;;;;;;27.33;10.52;;;;;;;;;;5084331;28;20032;-55
2022/11/13 03:58:44;;;;;;;19.27;9.88;;;;;;;;;;5080870;28;20124;-56
2022/11/13 04:01:09;;;;;;;20.58;9.88;;;;;;;;;;5080657;28;20367;-56
2022/11/13 04:03:35;;;;;;;19.30;9.63;;;;;;;;;;5097336;28;20035;-55
2022/11/13 04:06:00;;;;;;;20.08;10.50;;;;;;;;;;5078225;28;20544;-56
2022/11/13 04:08:25;;;;;;;33.15;10.88;;;;;;;;;;5109688;27;20048;-55
2022/11/13 04:10:50;;;;;;;35.72;11.05;;;;;;;;;;5081662;28;20041;-56
2022/11/13 04:13:16;;;;;;;28.35;11.93;;;;;;;;;;5079835;28;20062;-54
2022/11/13 04:15:41;;;;;;;22.90;10.40;;;;;;;;;;5086547;28;20465;-57
2022/11/13 04:18:06;;;;;;;60.78;10.15;;;;;;;;;;5070078;28;20563;-57
2022/11/13 04:20:32;;;;;;;70.43;9.55;;;;;;;;;;5073209;28;20032;-57
2022/11/13 04:22:57;;;;;;;60.95;11.13;;;;;;;;;;5078704;28;20032;-57
2022/11/13 04:25:22;;;;;;;69.10;10.85;;;;;;;;;;5081104;28;20035;-57
2022/11/13 04:27:48;;;;;;;42.88;10.85;;;;;;;;;;5072726;28;20316;-57
2022/11/13 04:30:14;;;;;;;36.75;11.02;;;;;;;;;;5076025;28;20475;-57
2022/11/13 04:32:39;;;;;;;31.55;10.32;;;;;;;;;;5074610;28;20028;-57
2022/11/13 04:35:05;;;;;;;31.33;10.48;;;;;;;;;;5072257;28;20100;-56
2022/11/13 04:37:30;;;;;;;22.20;9.77;;;;;;;;;;5084183;28;20029;-58
2022/11/13 04:39:56;;;;;;;42.85;10.32;;;;;;;;;;5088210;28;20020;-57
2022/11/13 04:45:05;;;;;;;65.10;10.57;;;;;;;;;;5086047;28;20076;-57
2022/11/13 04:47:30;;;;;;;69.30;9.93;;;;;;;;;;5074698;28;20024;-56
2022/11/13 04:49:55;;;;;;;66.65;10.63;;;;;;;;;;5076837;28;20063;-56
2022/11/13 04:52:21;;;;;;;81.70;18.23;;;;;;;;;;5077174;28;20096;-57
2022/11/13 04:54:46;;;;;;;79.80;12.98;;;;;;;;;;5075248;28;20035;-57
2022/11/13 04:57:11;;;;;;;115.82;16.95;;;;;;;;;;5077327;28;20201;-57
2022/11/13 04:59:36;;;;;;;56.30;13.30;;;;;;;;;;5073590;28;20063;-57
2022/11/13 05:02:01;;;;;;;39.00;10.80;;;;;;;;;;5074417;28;20027;-56
2022/11/13 05:04:27;;;;;;;43.65;8.98;;;;;;;;;;5080075;28;20028;-55
2022/11/13 05:06:52;;;;;;;35.20;8.95;;;;;;;;;;5080413;28;20212;-56
2022/11/13 05:09:17;;;;;;;15.38;8.27;;;;;;;;;;5080332;28;20435;-56
2022/11/13 05:11:42;;;;;;;18.25;8.40;;;;;;;;;;5088152;28;20615;-57
2022/11/13 05:14:09;;;;;;;37.67;9.60;;;;;;;;;;5080693;28;20024;-56
2022/11/13 05:16:35;;;;;;;45.45;11.18;;;;;;;;;;5075177;28;20044;-56
2022/11/13 05:19:00;;;;;;;26.98;10.80;;;;;;;;;;5084219;28;20114;-56
2022/11/13 05:21:26;;;;;;;25.35;9.55;;;;;;;;;;5079470;28;20367;-57
2022/11/13 05:23:51;;;;;;;28.67;12.18;;;;;;;;;;5078993;28;20043;-56
2022/11/13 05:26:16;;;;;;;28.38;11.15;;;;;;;;;;5083939;28;20021;-56
2022/11/13 05:28:41;;;;;;;26.67;9.48;;;;;;;;;;5077416;28;20498;-57
2022/11/13 05:31:11;;;;;;;24.02;9.45;;;;;;;;;;5068349;28;20111;-56
2022/11/13 05:33:37;;;;;;;28.70;8.87;;;;;;;;;;5079714;28;20036;-57
2022/11/13 05:36:06;;;;;;;26.52;9.43;;;;;;;;;;5078305;28;20047;-56
2022/11/13 05:38:31;;;;;;;23.80;11.02;;;;;;;;;;5077497;28;20016;-57
2022/11/13 05:41:00;;;;;;;27.92;10.05;;;;;;;;;;5072260;28;20035;-57
2022/11/13 05:43:25;;;;;;;48.95;11.20;;;;;;;;;;5086749;28;20040;-57
2022/11/13 05:45:51;;;;;;;32.92;10.52;;;;;;;;;;5078174;28;20054;-55
2022/11/13 05:48:16;;;;;;;24.40;8.65;;;;;;;;;;5083327;28;20012;-57
2022/11/13 05:50:41;;;;;;;54.55;9.00;;;;;;;;;;5084145;28;20024;-55
2022/11/13 05:53:06;;;;;;;48.17;8.80;;;;;;;;;;5071426;28;20108;-57
2022/11/13 05:55:31;;;;;;;40.05;8.25;;;;;;;;;;5080234;28;20116;-57
2022/11/13 05:57:57;;;;;;;32.78;7.55;;;;;;;;;;5081286;28;20444;-57
2022/11/13 06:00:22;;;;;;;34.55;6.85;;;;;;;;;;5079534;28;20031;-56
2022/11/13 06:02:47;;;;;;;38.92;7.97;;;;;;;;;;5110668;27;20451;-57
2022/11/13 06:05:13;;;;;;;26.83;7.53;;;;;;;;;;5073426;28;20033;-55
2022/11/13 06:07:38;;;;;;;27.63;8.38;;;;;;;;;;5081515;28;20119;-56
2022/11/13 06:10:03;;;;;;;19.60;7.90;;;;;;;;;;5082626;28;20600;-56
2022/11/13 06:12:29;;;;;;;76.55;9.05;;;;;;;;;;5077293;28;20043;-56
2022/11/13 06:14:54;;;;;;;33.45;8.77;;;;;;;;;;5076262;28;20143;-57
2022/11/13 06:17:20;;;;;;;35.67;8.20;;;;;;;;;;5069843;28;20117;-56
2022/11/13 06:19:47;;;;;;;20.33;8.95;;;;;;;;;;5086900;28;20106;-56
2022/11/13 06:22:12;;;;;;;22.42;8.23;;;;;;;;;;5081786;28;20112;-56
2022/11/13 06:24:37;;;;;;;29.40;8.30;;;;;;;;;;5080317;28;20441;-56
2022/11/13 06:27:02;;;;;;;82.88;8.52;;;;;;;;;;5077329;28;20862;-56
2022/11/13 06:29:28;;;;;;;87.70;8.70;;;;;;;;;;5079070;28;20067;-57
2022/11/13 06:31:53;;;;;;;54.88;9.48;;;;;;;;;;5079185;28;20121;-56
2022/11/13 06:34:18;;;;;;;32.78;8.07;;;;;;;;;;5068186;28;20035;-57
2022/11/13 06:36:43;;;;;;;52.75;8.82;;;;;;;;;;5072518;28;20036;-57
2022/11/13 06:39:09;;;;;;;40.25;8.40;;;;;;;;;;5075937;28;20043;-57
2022/11/13 06:41:34;;;;;;;30.98;8.50;;;;;;;;;;5083925;28;20036;-57
2022/11/13 06:43:59;;;;;;;20.98;8.07;;;;;;;;;;5074046;28;20015;-56
2022/11/13 06:46:25;;;;;;;30.85;8.05;;;;;;;;;;5080851;28;20028;-56
2022/11/13 06:48:51;;;;;;;19.70;8.50;;;;;;;;;;5075931;28;20034;-57
2022/11/13 06:51:17;;;;;;;61.08;9.32;;;;;;;;;;5076124;28;20099;-57
2022/11/13 06:53:42;;;;;;;37.67;8.38;;;;;;;;;;5085635;28;20471;-57
2022/11/13 06:56:07;;;;;;;96.97;9.50;;;;;;;;;;5075034;28;20111;-56
2022/11/13 06:58:33;;;;;;;50.35;7.57;;;;;;;;;;5086374;28;20137;-57
2022/11/13 07:01:03;;;;;;;54.10;8.85;;;;;;;;;;5074056;28;20035;-57
2022/11/13 07:03:29;;;;;;;39.88;7.57;;;;;;;;;;5080698;28;20391;-55
2022/11/13 07:05:54;;;;;;;25.33;7.22;;;;;;;;;;5073969;28;20059;-57
2022/11/13 07:08:19;;;;;;;24.65;7.47;;;;;;;;;;5074407;28;20408;-57
2022/11/13 07:10:51;;;;;;;33.15;7.65;;;;;;;;;;5093524;28;20149;-57
2022/11/13 07:13:16;;;;;;;25.83;7.55;;;;;;;;;;5085739;28;20028;-56
2022/11/13 07:15:41;;;;;;;21.73;7.03;;;;;;;;;;5074434;28;20028;-56
2022/11/13 07:18:06;;;;;;;30.25;7.60;;;;;;;;;;5075412;28;20024;-56
2022/11/13 07:20:32;;;;;;;34.53;6.97;;;;;;;;;;5080016;28;20028;-56
2022/11/13 07:22:57;;;;;;;47.58;7.07;;;;;;;;;;5068992;28;20438;-56
2022/11/13 07:25:23;;;;;;;59.03;8.82;;;;;;;;;;5085501;28;20036;-56
2022/11/13 07:27:48;;;;;;;32.53;7.70;;;;;;;;;;5079226;28;20236;-56
2022/11/13 07:30:14;;;;;;;25.00;8.10;;;;;;;;;;5075612;28;20154;-56
2022/11/13 07:32:39;;;;;;;25.13;7.82;;;;;;;;;;5076722;28;20039;-55
2022/11/13 07:35:04;;;;;;;47.45;7.93;;;;;;;;;;5079687;28;20027;-56
2022/11/13 07:37:29;;;;;;;36.47;7.20;;;;;;;;;;5075010;28;20028;-56
2022/11/13 07:39:55;;;;;;;17.63;6.10;;;;;;;;;;5074557;28;20023;-57
2022/11/13 07:42:20;;;;;;;18.70;5.70;;;;;;;;;;5090403;28;20024;-56
2022/11/13 07:44:45;;;;;;;41.38;6.45;;;;;;;;;;5078593;28;20024;-56
2022/11/13 07:47:10;;;;;;;24.75;5.97;;;;;;;;;;5119058;27;20056;-56
2022/11/13 07:49:36;;;;;;;36.85;6.20;;;;;;;;;;5079349;28;20480;-56
2022/11/13 07:52:01;;;;;;;42.00;6.22;;;;;;;;;;5108249;27;20510;-55
2022/11/13 07:54:26;;;;;;;43.58;6.38;;;;;;;;;;5080964;28;20423;-56
2022/11/13 07:56:51;;;;;;;16.45;6.13;;;;;;;;;;5069875;28;20063;-55
2022/11/13 07:59:17;;;;;;;13.70;6.15;;;;;;;;;;5108598;27;20026;-57
2022/11/13 08:01:42;;;;;;;15.75;5.88;;;;;;;;;;5097781;28;20024;-56
2022/11/13 08:04:07;;;;;;;10.27;5.80;;;;;;;;;;5091688;28;20028;-56
2022/11/13 08:06:35;;;;;;;19.92;6.72;;;;;;;;;;5081837;28;20403;-57
2022/11/13 08:09:00;;;;;;;20.77;7.93;;;;;;;;;;5087262;28;20393;-57
2022/11/13 08:11:25;;;;;;;17.40;7.97;;;;;;;;;;5082124;28;20043;-57
2022/11/13 08:13:50;;;;;;;17.02;12.35;;;;;;;;;;5080947;28;20102;-58
2022/11/13 08:16:16;;;;;;;24.45;11.25;;;;;;;;;;5082773;28;20134;-57
2022/11/13 08:18:41;;;;;;;26.27;8.45;;;;;;;;;;5082478;28;20517;-58
2022/11/13 08:21:06;;;;;;;75.13;8.07;;;;;;;;;;5068585;28;20043;-58
2022/11/13 08:23:31;;;;;;;18.25;7.65;;;;;;;;;;5097921;28;20353;-57
2022/11/13 08:25:57;;;;;;;14.65;6.70;;;;;;;;;;5074729;28;20043;-57
2022/11/13 08:28:22;;;;;;;255.35;11.88;;;;;;;;;;5079669;28;20555;-57
2022/11/13 08:30:47;;;;;;;277.02;32.30;;;;;;;;;;5080075;28;20032;-57
2022/11/13 08:33:13;;;;;;;108.47;11.75;;;;;;;;;;5083363;28;20016;-58
2022/11/13 08:35:38;;;;;;;39.45;9.00;;;;;;;;;;5075967;28;20666;-57
2022/11/13 08:38:04;;;;;;;93.15;11.90;;;;;;;;;;5081495;28;20021;-58
2022/11/13 08:40:29;;;;;;;28.67;8.43;;;;;;;;;;5080933;28;20028;-57
2022/11/13 08:43:01;;;;;;;50.70;10.68;;;;;;;;;;5072309;28;20024;-58
2022/11/13 08:45:26;;;;;;;82.32;18.45;;;;;;;;;;5083348;28;20020;-57
2022/11/13 08:47:52;;;;;;;139.55;10.73;;;;;;;;;;5077454;28;20039;-57
2022/11/13 08:50:17;;;;;;;33.83;7.90;;;;;;;;;;5079608;28;20162;-58
2022/11/13 08:52:42;;;;;;;81.50;8.63;;;;;;;;;;5083210;28;20407;-58
2022/11/13 08:55:07;;;;;;;178.88;11.13;;;;;;;;;;5078504;28;20041;-59
2022/11/13 08:57:33;;;;;;;181.40;10.05;;;;;;;;;;5078552;28;20139;-57
2022/11/13 08:59:58;;;;;;;122.47;11.43;;;;;;;;;;5084646;28;20083;-59
2022/11/13 09:02:24;;;;;;;102.75;11.35;;;;;;;;;;5077165;28;20390;-60
2022/11/13 09:04:49;;;;;;;74.60;11.88;;;;;;;;;;5082010;28;20031;-58
2022/11/13 09:07:14;;;;;;;43.53;10.55;;;;;;;;;;5077014;28;20335;-58
2022/11/13 09:09:39;;;;;;;24.88;10.02;;;;;;;;;;5077292;28;20036;-58
2022/11/13 09:12:05;;;;;;;45.72;12.20;;;;;;;;;;5081746;28;20024;-58
2022/11/13 09:14:30;;;;;;;30.35;13.38;;;;;;;;;;5081903;28;20024;-59
2022/11/13 09:16:56;;;;;;;18.88;12.10;;;;;;;;;;5067517;28;20025;-59
2022/11/13 09:19:21;;;;;;;19.20;11.98;;;;;;;;;;5085967;28;20024;-59
2022/11/13 09:21:46;;;;;;;24.73;15.68;;;;;;;;;;5085454;28;20016;-59
2022/11/13 09:24:12;;;;;;;24.45;15.73;;;;;;;;;;5076898;28;20031;-59
2022/11/13 09:26:37;;;;;;;28.52;17.80;;;;;;;;;;5079925;28;20115;-58
2022/11/13 09:29:02;;;;;;;26.58;17.63;;;;;;;;;;5087662;28;20020;-59
2022/11/13 09:31:28;;;;;;;27.65;18.50;;;;;;;;;;5076230;28;20438;-58
2022/11/13 09:33:53;;;;;;;22.30;14.57;;;;;;;;;;5073602;28;20024;-58
2022/11/13 09:36:18;;;;;;;22.00;14.45;;;;;;;;;;5080729;28;20028;-58
2022/11/13 09:38:43;;;;;;;22.15;13.73;;;;;;;;;;5088624;28;20436;-58
2022/11/13 09:41:10;;;;;;;13.63;9.27;;;;;;;;;;5108165;27;20129;-58
2022/11/13 09:43:41;;;;;;;17.42;9.02;;;;;;;;;;5084001;28;20036;-60
2022/11/13 09:46:25;;;;;;;10.70;8.30;;;;;;;;;;5075183;28;20093;-57
2022/11/13 09:48:54;;;;;;;15.75;8.80;;;;;;;;;;5074799;28;20013;-57
2022/11/13 09:51:30;;;;;;;14.00;9.30;;;;;;;;;;5085878;28;20114;-58
2022/11/13 09:53:55;;;;;;;50.13;9.38;;;;;;;;;;5080176;28;20024;-58
2022/11/13 09:56:23;;;;;;;17.15;10.25;;;;;;;;;;5107847;27;20032;-58
2022/11/13 09:58:51;;;;;;;16.48;11.25;;;;;;;;;;5076872;28;20023;-59
2022/11/13 10:01:25;;;;;;;15.05;10.93;;;;;;;;;;5083731;28;20024;-59
2022/11/13 10:03:52;;;;;;;23.50;8.73;;;;;;;;;;5072278;28;20067;-58
2022/11/13 10:06:20;;;;;;;23.48;8.20;;;;;;;;;;5112299;27;20113;-57
2022/11/13 10:08:55;;;;;;;29.25;11.88;;;;;;;;;;5117340;27;20050;-58
2022/11/13 10:11:25;;;;;;;31.10;14.43;;;;;;;;;;5075047;28;20020;-58
2022/11/13 10:13:55;;;;;;;15.70;9.82;;;;;;;;;;5091968;28;20024;-57
2022/11/13 10:16:21;;;;;;;14.15;9.55;;;;;;;;;;5083254;28;20032;-58
2022/11/13 10:18:46;;;;;;;14.38;8.57;;;;;;;;;;5085133;28;20028;-58
2022/11/13 10:21:28;;;;;;;19.35;10.40;;;;;;;;;;5080281;28;20066;-58
2022/11/13 10:23:55;;;;;;;26.73;10.18;;;;;;;;;;5088893;28;20339;-57
2022/11/13 10:26:20;;;;;;;18.15;10.30;;;;;;;;;;5082025;28;20023;-57
2022/11/13 10:28:46;;;;;;;45.22;11.80;;;;;;;;;;5085460;28;20368;-58
2022/11/13 10:31:11;;;;;;;30.95;10.60;;;;;;;;;;5088008;28;20118;-57
2022/11/13 10:33:37;;;;;;;22.52;10.65;;;;;;;;;;5077800;28;20026;-57
2022/11/13 10:36:21;;;;;;;23.90;10.75;;;;;;;;;;5080968;28;20467;-57
2022/11/13 10:38:52;;;;;;;18.67;11.45;;;;;;;;;;5083792;28;20146;-57
2022/11/13 10:41:18;;;;;;;18.38;11.93;;;;;;;;;;5080593;28;20115;-57
2022/11/13 10:43:56;;;;;;;20.95;13.07;;;;;;;;;;5081160;28;20065;-59
2022/11/13 10:46:23;;;;;;;18.88;12.25;;;;;;;;;;5083975;28;20044;-59
2022/11/13 10:48:48;;;;;;;19.77;12.93;;;;;;;;;;5081520;28;20177;-57
2022/11/13 10:51:21;;;;;;;17.75;12.40;;;;;;;;;;5074614;28;20131;-57
2022/11/13 10:53:46;;;;;;;16.52;12.05;;;;;;;;;;5074640;28;20024;-57
2022/11/13 10:56:18;;;;;;;16.33;11.82;;;;;;;;;;5080000;28;20048;-57
2022/11/13 10:58:44;;;;;;;20.13;12.82;;;;;;;;;;5077503;28;20138;-57
2022/11/13 11:01:21;;;;;;;18.35;12.23;;;;;;;;;;5079775;28;20032;-57
2022/11/13 11:03:49;;;;;;;17.67;11.80;;;;;;;;;;5080724;28;20021;-57
2022/11/13 11:06:14;;;;;;;17.98;12.43;;;;;;;;;;5082560;28;20061;-57
2022/11/13 11:08:40;;;;;;;16.45;11.88;;;;;;;;;;5081192;28;20027;-57
2022/11/13 11:14:10;;;;;;;16.75;11.50;;;;;;;;;;5080424;28;20381;-58
2022/11/13 11:16:36;;;;;;;17.10;11.45;;;;;;;;;;5090120;28;20028;-57
2022/11/13 11:19:01;;;;;;;14.93;10.85;;;;;;;;;;5080812;28;20070;-57
2022/11/13 11:21:31;;;;;;;14.43;10.48;;;;;;;;;;5113505;27;20024;-57
2022/11/13 11:23:59;;;;;;;24.48;15.77;;;;;;;;;;5091794;28;20069;-58
2022/11/13 11:26:31;;;;;;;17.50;13.50;;;;;;;;;;5088206;28;20378;-58
2022/11/13 11:29:11;;;;;;;18.52;13.63;;;;;;;;;;5085346;28;20028;-58
2022/11/13 11:31:39;;;;;;;22.10;14.98;;;;;;;;;;5081045;28;20029;-58
2022/11/13 11:34:13;;;;;;;30.83;18.40;;;;;;;;;;5108962;27;20097;-58
2022/11/13 11:36:47;;;;;;;32.00;18.20;;;;;;;;;;5117492;27;20028;-58
2022/11/13 11:39:15;;;;;;;21.85;15.23;;;;;;;;;;5108395;27;20371;-58
2022/11/13 11:41:45;;;;;;;18.88;13.68;;;;;;;;;;5084942;28;20497;-58
2022/11/13 11:44:37;;;;;;;19.85;13.65;;;;;;;;;;5115861;27;20035;-57
2022/11/13 11:47:02;;;;;;;17.52;13.32;;;;;;;;;;5077556;28;20084;-58
2022/11/13 11:49:27;;;;;;;19.23;14.05;;;;;;;;;;5075471;28;20047;-57
2022/11/13 11:52:11;;;;;;;18.27;13.63;;;;;;;;;;5091092;28;20389;-58
2022/11/13 11:54:40;;;;;;;18.75;12.85;;;;;;;;;;5089369;28;20028;-57
2022/11/13 11:57:12;;;;;;;17.92;13.32;;;;;;;;;;5091324;28;20073;-58
2022/11/13 11:59:43;;;;;;;15.93;12.25;;;;;;;;;;5128202;27;20031;-58
2022/11/13 12:02:23;;;;;;;16.73;11.95;;;;;;;;;;5075505;28;20017;-58
2022/11/13 12:04:57;;;;;;;16.33;11.15;;;;;;;;;;5112743;27;20011;-58
2022/11/13 12:07:38;;;;;;;18.30;12.60;;;;;;;;;;5083682;28;20064;-57
2022/11/13 12:10:03;;;;;;;;;;;;;;;;;;5076167;28;20016;-58
2022/11/13 12:12:40;;;;;;;25.50;14.77;;;;;;;;;;5082560;28;19965;-58
2022/11/13 12:15:08;;;;;;;14.73;11.13;;;;;;;;;;5108955;27;20779;-58
2022/11/13 12:17:39;;;;;;;13.90;8.90;;;;;;;;;;5086610;28;20267;-57
2022/11/13 12:20:04;;;;;;;12.95;9.13;;;;;;;;;;5075378;28;20024;-57
2022/11/13 12:22:42;;;;;;;11.18;8.43;;;;;;;;;;5085840;28;20028;-58
2022/11/13 12:25:27;;;;;;;9.77;7.53;;;;;;;;;;5086772;28;20016;-57
2022/11/13 12:27:56;;;;;;;11.55;8.65;;;;;;;;;;5079903;28;20103;-58
2022/11/13 12:30:23;;;;;;;11.23;8.40;;;;;;;;;;5077289;28;20430;-57
2022/11/13 12:32:59;;;;;;;10.82;7.90;;;;;;;;;;5081006;28;20032;-57
2022/11/13 12:35:24;;;;;;;9.65;7.68;;;;;;;;;;5108314;27;20063;-58
2022/11/13 12:37:51;;;;;;;9.32;7.00;;;;;;;;;;5080124;28;20104;-57
2022/11/13 12:40:29;;;;;;;10.10;7.97;;;;;;;;;;5082691;28;20091;-58
2022/11/13 12:43:13;;;;;;;11.23;7.97;;;;;;;;;;5076589;28;20024;-57
2022/11/13 12:45:38;;;;;;;12.75;8.00;;;;;;;;;;5078738;28;20066;-58
2022/11/13 12:48:27;;;;;;;11.18;8.35;;;;;;;;;;5080251;28;20427;-57
2022/11/13 12:50:56;;;;;;;11.50;8.07;;;;;;;;;;5073139;28;20067;-57
2022/11/13 12:53:26;;;;;;;13.30;8.88;;;;;;;;;;5088108;28;20490;-57
2022/11/13 12:55:58;;;;;;;10.90;8.20;;;;;;;;;;5085780;27;20078;-57
2022/11/13 12:58:24;;;;;;;11.00;8.82;;;;;;;;;;5078343;28;20028;-57
2022/11/13 13:01:10;;;;;;;10.40;8.00;;;;;;;;;;5073494;28;20398;-58
2022/11/13 13:03:39;;;;;;;11.80;8.30;;;;;;;;;;5076514;28;20036;-58
2022/11/13 13:06:04;;;;;;;10.77;7.70;;;;;;;;;;5083962;28;20043;-57
2022/11/13 13:08:56;;;;;;;10.45;7.75;;;;;;;;;;5089668;28;20281;-58
2022/11/13 13:11:28;;;;;;;10.65;8.05;;;;;;;;;;5051854;28;20055;-58
2022/11/13 13:13:54;;;;;;;10.75;8.20;;;;;;;;;;5083289;28;20466;-57
2022/11/13 13:16:20;;;;;;;11.15;8.30;;;;;;;;;;5078572;28;20035;-57
2022/11/13 13:18:46;;;;;;;11.73;7.93;;;;;;;;;;5073471;28;20279;-57
2022/11/13 13:21:12;;;;;;;15.38;11.07;;;;;;;;;;5077790;28;20051;-57
2022/11/13 13:23:38;;;;;;;12.43;8.68;;;;;;;;;;5077553;28;20155;-58
2022/11/13 13:26:20;;;;;;;10.93;8.27;;;;;;;;;;5087611;28;20070;-57
2022/11/13 13:28:52;;;;;;;10.07;8.00;;;;;;;;;;5081728;28;20031;-57
2022/11/13 13:31:37;;;;;;;10.57;7.90;;;;;;;;;;5071804;28;20543;-58
2022/11/13 13:34:21;;;;;;;12.57;8.63;;;;;;;;;;5074582;28;20490;-57
2022/11/13 13:36:46;;;;;;;10.57;7.43;;;;;;;;;;5078084;28;20085;-57
2022/11/13 13:39:11;;;;;;;10.23;7.68;;;;;;;;;;5071801;28;20391;-58
2022/11/13 13:41:55;;;;;;;12.00;7.95;;;;;;;;;;5082491;28;20042;-58
2022/11/13 13:44:23;;;;;;;12.13;8.27;;;;;;;;;;5075347;28;20028;-57
2022/11/13 13:46:49;;;;;;;11.75;8.10;;;;;;;;;;5081502;28;20024;-58
2022/11/13 13:49:17;;;;;;;13.57;7.32;;;;;;;;;;5077773;28;20035;-57
2022/11/13 13:51:43;;;;;;;9.88;7.15;;;;;;;;;;5077822;28;20035;-57
2022/11/13 13:54:08;;;;;;;10.27;7.10;;;;;;;;;;5093666;28;20684;-58
2022/11/13 13:56:38;;;;;;;10.90;7.32;;;;;;;;;;5082361;28;20046;-57
2022/11/13 13:59:04;;;;;;;13.63;7.40;;;;;;;;;;5082527;28;20096;-57
2022/11/13 14:01:30;;;;;;;11.05;7.82;;;;;;;;;;5076429;28;20159;-58
2022/11/13 14:04:02;;;;;;;11.77;7.28;;;;;;;;;;5082219;28;20379;-57
2022/11/13 14:06:27;;;;;;;11.55;7.68;;;;;;;;;;5081849;28;20048;-58
2022/11/13 14:08:52;;;;;;;12.02;7.63;;;;;;;;;;5082167;28;20524;-57
2022/11/13 14:11:19;;;;;;;13.10;7.78;;;;;;;;;;5084440;28;20374;-57
2022/11/13 14:13:45;;;;;;;13.00;7.70;;;;;;;;;;5078369;28;20027;-58
2022/11/13 14:16:10;;;;;;;10.40;7.70;;;;;;;;;;5084490;28;20036;-57
2022/11/13 14:18:35;;;;;;;10.40;7.35;;;;;;;;;;5078280;28;20111;-57
2022/11/13 14:21:02;;;;;;;10.77;7.50;;;;;;;;;;5077518;28;20028;-57
2022/11/13 14:23:28;;;;;;;10.35;7.00;;;;;;;;;;5080215;28;20083;-57
2022/11/13 14:25:54;;;;;;;11.18;7.00;;;;;;;;;;5082230;28;20029;-57